createdAt,value
2019-04-14T00:00:05.360Z,-1.00
2019-04-14T00:01:04.369Z,-1.00
2019-04-14T00:02:05.271Z,-1.00
2019-04-14T00:03:04.965Z,-1.00
2019-04-14T00:04:05.212Z,-1.00
2019-04-14T00:05:06.096Z,-1.00
2019-04-14T00:06:04.920Z,-1.00
2019-04-14T00:07:05.821Z,-1.00
2019-04-14T00:08:04.690Z,-1.00
2019-04-14T00:09:05.421Z,-1.00
2019-04-14T00:10:05.152Z,-1.00
2019-04-14T00:11:06.122Z,-1.10
2019-04-14T00:12:07.375Z,-1.10
2019-04-14T00:13:04.670Z,-1.10
2019-04-14T00:14:05.335Z,-1.10
2019-04-14T00:15:05.677Z,-1.10
2019-04-14T00:16:05.295Z,-1.10
2019-04-14T00:17:04.369Z,-1.10
2019-04-14T00:18:09.970Z,-1.10
2019-04-14T00:19:04.474Z,-1.10
2019-04-14T00:20:05.354Z,-1.20
2019-04-14T00:21:04.774Z,-1.20
2019-04-14T00:22:05.272Z,-1.20
2019-04-14T00:23:05.147Z,-1.20
2019-04-14T00:24:05.194Z,-1.10
2019-04-14T00:25:04.986Z,-1.20
2019-04-14T00:26:05.155Z,-1.20
2019-04-14T00:27:06.034Z,-1.20
2019-04-14T00:28:05.290Z,-1.20
2019-04-14T00:29:04.571Z,-1.20
2019-04-14T00:30:05.455Z,-1.20
2019-04-14T00:31:04.520Z,-1.20
2019-04-14T00:32:05.148Z,-1.20
2019-04-14T00:33:06.164Z,-1.20
2019-04-14T00:34:05.164Z,-1.20
2019-04-14T00:35:04.671Z,-1.20
2019-04-14T00:36:04.886Z,-1.20
2019-04-14T00:37:05.480Z,-1.20
2019-04-14T00:38:04.497Z,-1.20
2019-04-14T00:39:05.304Z,-1.20
2019-04-14T00:40:04.502Z,-1.20
2019-04-14T00:41:05.131Z,-1.20
2019-04-14T00:42:06.513Z,-1.20
2019-04-14T00:43:09.765Z,-1.20
2019-04-14T00:44:05.601Z,-1.20
2019-04-14T00:45:04.772Z,-1.20
2019-04-14T00:46:05.763Z,-1.20
2019-04-14T00:47:05.002Z,-1.20
2019-04-14T00:48:09.563Z,-1.20
2019-04-14T00:49:04.948Z,-1.30
2019-04-14T00:50:05.736Z,-1.30
2019-04-14T00:51:04.886Z,-1.30
2019-04-14T00:52:05.739Z,-1.30
2019-04-14T00:53:05.480Z,-1.30
2019-04-14T00:54:04.428Z,-1.30
2019-04-14T00:55:05.335Z,-1.30
2019-04-14T00:56:06.161Z,-1.40
2019-04-14T00:57:05.125Z,-1.30
2019-04-14T00:58:05.956Z,-1.40
2019-04-14T00:59:05.037Z,-1.30
2019-04-14T01:00:05.956Z,-1.40
2019-04-14T01:01:04.834Z,-1.40
2019-04-14T01:02:05.625Z,-1.40
2019-04-14T01:03:04.757Z,-1.30
2019-04-14T01:04:05.575Z,-1.40
2019-04-14T01:05:04.457Z,-1.40
2019-04-14T01:06:05.463Z,-1.40
2019-04-14T01:07:04.399Z,-1.40
2019-04-14T01:08:05.245Z,-1.40
2019-04-14T01:09:04.923Z,-1.40
2019-04-14T01:10:06.018Z,-1.50
2019-04-14T01:11:05.221Z,-1.50
2019-04-14T01:12:05.951Z,-1.50
2019-04-14T01:13:06.739Z,-1.50
2019-04-14T01:14:05.634Z,-1.50
2019-04-14T01:15:04.975Z,-1.50
2019-04-14T01:16:08.645Z,-1.50
2019-04-14T01:17:04.941Z,-1.50
2019-04-14T01:18:05.485Z,-1.50
2019-04-14T01:19:04.769Z,-1.50
2019-04-14T01:20:05.611Z,-1.50
2019-04-14T01:21:04.610Z,-1.60
2019-04-14T01:22:05.324Z,-1.60
2019-04-14T01:23:06.204Z,-1.60
2019-04-14T01:24:05.338Z,-1.50
2019-04-14T01:25:04.424Z,-1.60
2019-04-14T01:26:05.020Z,-1.60
2019-04-14T01:27:05.930Z,-1.50
2019-04-14T01:28:04.745Z,-1.60
2019-04-14T01:29:05.790Z,-1.60
2019-04-14T01:30:04.597Z,-1.60
2019-04-14T01:31:05.386Z,-1.60
2019-04-14T01:32:04.572Z,-1.60
2019-04-14T01:33:05.396Z,-1.60
2019-04-14T01:34:04.356Z,-1.60
2019-04-14T01:35:05.304Z,-1.60
2019-04-14T01:36:06.059Z,-1.60
2019-04-14T01:37:05.135Z,-1.60
2019-04-14T01:38:05.874Z,-1.60
2019-04-14T01:39:04.658Z,-1.70
2019-04-14T01:40:05.289Z,-1.70
2019-04-14T01:41:04.446Z,-1.70
2019-04-14T01:42:05.101Z,-1.70
2019-04-14T01:43:10.220Z,-1.70
2019-04-14T01:44:04.927Z,-1.70
2019-04-14T01:45:05.635Z,-1.80
2019-04-14T01:46:09.483Z,-1.80
2019-04-14T01:47:05.325Z,-1.80
2019-04-14T01:48:04.575Z,-1.80
2019-04-14T01:49:05.042Z,-1.80
2019-04-14T01:50:05.902Z,-1.80
2019-04-14T01:51:04.845Z,-1.90
2019-04-14T01:52:05.409Z,-1.90
2019-04-14T01:53:05.368Z,-1.90
2019-04-14T01:54:06.033Z,-1.90
2019-04-14T01:55:04.814Z,-1.90
2019-04-14T01:56:05.561Z,-1.90
2019-04-14T01:57:04.623Z,-2.00
2019-04-14T01:58:05.361Z,-2.00
2019-04-14T01:59:04.459Z,-2.00
2019-04-14T02:00:05.353Z,-2.00
2019-04-14T02:01:06.157Z,-2.00
2019-04-14T02:02:05.138Z,-2.00
2019-04-14T02:03:09.173Z,-2.00
2019-04-14T02:04:04.989Z,-2.00
2019-04-14T02:05:04.684Z,-2.00
2019-04-14T02:06:05.047Z,-2.10
2019-04-14T02:07:05.872Z,-2.10
2019-04-14T02:08:04.544Z,-2.10
2019-04-14T02:09:05.346Z,-2.10
2019-04-14T02:10:06.351Z,-2.10
2019-04-14T02:11:05.334Z,-2.10
2019-04-14T02:12:04.591Z,-2.10
2019-04-14T02:13:05.037Z,-2.10
2019-04-14T02:14:04.494Z,-2.10
2019-04-14T02:15:04.995Z,-2.10
2019-04-14T02:16:14.748Z,-2.10
2019-04-14T02:17:06.044Z,-2.10
2019-04-14T02:18:05.586Z,-2.10
2019-04-14T02:19:04.624Z,-2.10
2019-04-14T02:20:05.575Z,-2.10
2019-04-14T02:21:04.513Z,-2.10
2019-04-14T02:22:05.227Z,-2.10
2019-04-14T02:23:04.285Z,-2.10
2019-04-14T02:24:04.955Z,-2.20
2019-04-14T02:25:05.648Z,-2.20
2019-04-14T02:26:04.647Z,-2.20
2019-04-14T02:27:05.540Z,-2.20
2019-04-14T02:28:04.756Z,-2.20
2019-04-14T02:29:05.651Z,-2.20
2019-04-14T02:30:07.185Z,-2.20
2019-04-14T02:31:16.776Z,-2.20
2019-04-14T02:32:32.283Z,-2.20
2019-04-14T02:35:36.555Z,-2.20
2019-04-14T02:36:29.830Z,-2.20
2019-04-14T02:38:40.419Z,-2.20
2019-04-14T02:40:36.107Z,-2.20
2019-04-14T02:41:35.546Z,-2.20
2019-04-14T02:42:33.908Z,-2.30
2019-04-14T02:43:29.185Z,-2.20
2019-04-14T02:44:30.028Z,-2.30
2019-04-14T02:45:34.647Z,-2.30
2019-04-14T02:46:30.822Z,-2.20
2019-04-14T02:48:55.122Z,-2.20
2019-04-14T02:49:34.680Z,-2.20
2019-04-14T02:50:22.769Z,-2.20
2019-04-14T02:51:25.361Z,-2.20
2019-04-14T02:52:34.732Z,-2.20
2019-04-14T02:53:32.331Z,-2.20
2019-04-14T02:54:43.326Z,-2.20
2019-04-14T02:55:20.824Z,-2.20
2019-04-14T02:56:27.653Z,-2.20
2019-04-14T02:57:29.740Z,-2.20
2019-04-14T02:58:36.003Z,-2.20
2019-04-14T03:00:31.006Z,-2.30
2019-04-14T03:01:29.393Z,-2.30
2019-04-14T03:02:29.032Z,-2.30
2019-04-14T03:03:37.045Z,-2.30
2019-04-14T03:04:33.011Z,-2.30
2019-04-14T03:05:25.947Z,-2.30
2019-04-14T03:08:31.079Z,-2.30
2019-04-14T03:09:36.137Z,-2.30
2019-04-14T03:10:31.352Z,-2.30
2019-04-14T03:11:30.645Z,-2.30
2019-04-14T03:14:30.264Z,-2.30
2019-04-14T03:15:31.597Z,-2.30
2019-04-14T03:16:29.165Z,-2.30
2019-04-14T03:17:28.883Z,-2.30
2019-04-14T03:19:34.666Z,-2.30
2019-04-14T03:20:31.592Z,-2.30
2019-04-14T03:21:33.702Z,-2.30
2019-04-14T03:22:36.797Z,-2.30
2019-04-14T03:23:32.721Z,-2.30
2019-04-14T03:24:26.775Z,-2.30
2019-04-14T03:25:22.187Z,-2.30
2019-04-14T03:26:24.743Z,-2.30
2019-04-14T03:28:31.547Z,-2.30
2019-04-14T03:29:26.499Z,-2.30
2019-04-14T03:31:49.245Z,-2.30
2019-04-14T03:34:38.852Z,-2.30
2019-04-14T03:37:44.355Z,-2.30
2019-04-14T03:38:33.892Z,-2.30
2019-04-14T03:40:33.483Z,-2.30
2019-04-14T03:41:28.875Z,-2.30
2019-04-14T03:42:35.019Z,-2.30
2019-04-14T03:43:30.107Z,-2.30
2019-04-14T03:46:33.057Z,-2.30
2019-04-14T03:47:24.718Z,-2.30
2019-04-14T03:48:52.164Z,-2.30
2019-04-14T03:49:31.043Z,-2.30
2019-04-14T03:50:27.992Z,-2.30
2019-04-14T03:51:36.361Z,-2.30
2019-04-14T03:52:31.109Z,-2.30
2019-04-14T03:53:26.075Z,-2.30
2019-04-14T03:54:19.956Z,-2.40
2019-04-14T03:55:20.074Z,-2.40
2019-04-14T03:56:07.662Z,-2.40
2019-04-14T03:57:06.168Z,-2.40
2019-04-14T03:58:05.911Z,-2.40
2019-04-14T03:59:04.746Z,-2.40
2019-04-14T04:00:05.294Z,-2.40
2019-04-14T04:01:06.090Z,-2.40
2019-04-14T04:02:05.310Z,-2.50
2019-04-14T04:03:04.933Z,-2.50
2019-04-14T04:04:05.237Z,-2.50
2019-04-14T04:05:06.308Z,-2.50
2019-04-14T04:06:05.346Z,-2.50
2019-04-14T04:07:06.043Z,-2.50
2019-04-14T04:08:05.149Z,-2.50
2019-04-14T04:09:04.527Z,-2.50
2019-04-14T04:10:05.135Z,-2.50
2019-04-14T04:11:04.695Z,-2.50
2019-04-14T04:12:05.267Z,-2.50
2019-04-14T04:13:04.300Z,-2.50
2019-04-14T04:14:05.232Z,-2.50
2019-04-14T04:15:06.190Z,-2.50
2019-04-14T04:16:05.019Z,-2.50
2019-04-14T04:17:10.076Z,-2.50
2019-04-14T04:18:04.864Z,-2.50
2019-04-14T04:19:08.337Z,-2.60
2019-04-14T04:20:04.550Z,-2.60
2019-04-14T04:21:05.225Z,-2.60
2019-04-14T04:22:04.976Z,-2.60
2019-04-14T04:23:05.299Z,-2.60
2019-04-14T04:24:04.636Z,-2.60
2019-04-14T04:25:05.145Z,-2.60
2019-04-14T04:26:06.072Z,-2.60
2019-04-14T04:27:04.953Z,-2.60
2019-04-14T04:28:05.979Z,-2.60
2019-04-14T04:29:04.925Z,-2.60
2019-04-14T04:30:05.941Z,-2.60
2019-04-14T04:31:04.786Z,-2.50
2019-04-14T04:32:05.660Z,-2.50
2019-04-14T04:33:04.477Z,-2.60
2019-04-14T04:34:05.384Z,-2.50
2019-04-14T04:35:06.339Z,-2.50
2019-04-14T04:36:05.280Z,-2.50
2019-04-14T04:37:06.044Z,-2.50
2019-04-14T04:38:05.158Z,-2.50
2019-04-14T04:39:06.076Z,-2.50
2019-04-14T04:40:05.087Z,-2.50
2019-04-14T04:41:05.751Z,-2.50
2019-04-14T04:42:04.843Z,-2.50
2019-04-14T04:43:10.148Z,-2.50
2019-04-14T04:44:04.989Z,-2.40
2019-04-14T04:45:04.622Z,-2.40
2019-04-14T04:46:04.882Z,-2.40
2019-04-14T04:47:05.654Z,-2.40
2019-04-14T04:48:04.901Z,-2.40
2019-04-14T04:49:09.463Z,-2.40
2019-04-14T04:50:06.418Z,-2.40
2019-04-14T04:51:04.973Z,-2.40
2019-04-14T04:52:06.116Z,-2.40
2019-04-14T04:53:05.031Z,-2.40
2019-04-14T04:54:05.884Z,-2.40
2019-04-14T04:55:04.889Z,-2.40
2019-04-14T04:56:05.728Z,-2.40
2019-04-14T04:57:04.612Z,-2.40
2019-04-14T04:58:05.622Z,-2.40
2019-04-14T04:59:05.417Z,-2.40
2019-04-14T05:00:05.275Z,-2.40
2019-04-14T05:01:05.555Z,-2.40
2019-04-14T05:02:04.720Z,-2.40
2019-04-14T05:03:10.015Z,-2.40
2019-04-14T05:04:04.626Z,-2.40
2019-04-14T05:05:05.548Z,-2.40
2019-04-14T05:06:04.634Z,-2.40
2019-04-14T05:07:05.517Z,-2.30
2019-04-14T05:08:04.456Z,-2.30
2019-04-14T05:09:05.611Z,-2.30
2019-04-14T05:10:04.737Z,-2.30
2019-04-14T05:11:05.380Z,-2.20
2019-04-14T05:12:04.524Z,-2.20
2019-04-14T05:13:05.175Z,-2.20
2019-04-14T05:14:04.715Z,-2.20
2019-04-14T05:15:05.302Z,-2.20
2019-04-14T05:16:06.232Z,-2.10
2019-04-14T05:17:05.794Z,-2.10
2019-04-14T05:18:04.980Z,-2.10
2019-04-14T05:19:13.734Z,-2.10
2019-04-14T05:20:05.244Z,-2.10
2019-04-14T05:21:06.036Z,-2.10
2019-04-14T05:22:04.943Z,-2.10
2019-04-14T05:23:05.803Z,-2.00
2019-04-14T05:24:04.970Z,-2.00
2019-04-14T05:25:05.745Z,-2.00
2019-04-14T05:26:04.848Z,-2.00
2019-04-14T05:27:05.623Z,-2.00
2019-04-14T05:28:04.967Z,-2.00
2019-04-14T05:29:05.667Z,-1.90
2019-04-14T05:30:04.702Z,-1.90
2019-04-14T05:31:05.441Z,-1.90
2019-04-14T05:32:05.055Z,-1.90
2019-04-14T05:33:05.239Z,-1.90
2019-04-14T05:34:04.446Z,-1.90
2019-04-14T05:35:05.284Z,-1.90
2019-04-14T05:36:04.535Z,-1.90
2019-04-14T05:37:05.018Z,-1.90
2019-04-14T05:38:04.444Z,-1.90
2019-04-14T05:39:04.699Z,-1.80
2019-04-14T05:40:05.866Z,-1.80
2019-04-14T05:41:04.741Z,-1.80
2019-04-14T05:42:11.199Z,-1.80
2019-04-14T05:43:11.017Z,-1.80
2019-04-14T05:44:06.075Z,-1.80
2019-04-14T05:45:06.346Z,-1.80
2019-04-14T05:46:05.454Z,-1.80
2019-04-14T05:47:06.411Z,-1.80
2019-04-14T05:48:05.392Z,-1.70
2019-04-14T05:49:04.412Z,-1.70
2019-04-14T05:50:05.213Z,-1.70
2019-04-14T05:51:06.271Z,-1.70
2019-04-14T05:52:05.548Z,-1.70
2019-04-14T05:53:04.447Z,-1.70
2019-04-14T05:54:05.609Z,-1.70
2019-04-14T05:55:04.503Z,-1.60
2019-04-14T05:56:04.325Z,-1.60
2019-04-14T05:57:04.474Z,-1.60
2019-04-14T05:58:04.272Z,-1.60
2019-04-14T05:59:04.447Z,-1.50
2019-04-14T06:00:05.956Z,-1.50
2019-04-14T06:01:04.833Z,-1.50
2019-04-14T06:02:04.832Z,-1.50
2019-04-14T06:03:05.952Z,-1.50
2019-04-14T06:04:04.754Z,-1.50
2019-04-14T06:05:06.406Z,-1.40
2019-04-14T06:06:04.399Z,-1.40
2019-04-14T06:07:04.553Z,-1.40
2019-04-14T06:08:05.138Z,-1.40
2019-04-14T06:09:04.481Z,-1.40
2019-04-14T06:10:05.015Z,-1.40
2019-04-14T06:11:05.219Z,-1.40
2019-04-14T06:12:04.662Z,-1.40
2019-04-14T06:13:04.771Z,-1.30
2019-04-14T06:14:04.976Z,-1.30
2019-04-14T06:15:05.193Z,-1.30
2019-04-14T06:16:04.338Z,-1.30
2019-04-14T06:17:04.470Z,-1.30
2019-04-14T06:18:04.896Z,-1.30
2019-04-14T06:19:05.239Z,-1.30
2019-04-14T06:20:04.640Z,-1.30
2019-04-14T06:21:04.342Z,-1.30
2019-04-14T06:22:04.561Z,-1.30
2019-04-14T06:23:05.171Z,-1.20
2019-04-14T06:24:05.371Z,-1.20
2019-04-14T06:25:04.946Z,-1.20
2019-04-14T06:26:04.243Z,-1.20
2019-04-14T06:27:04.515Z,-1.20
2019-04-14T06:28:05.103Z,-1.20
2019-04-14T06:29:04.276Z,-1.20
2019-04-14T06:30:04.340Z,-1.20
2019-04-14T06:31:04.484Z,-1.10
2019-04-14T06:32:04.478Z,-1.10
2019-04-14T06:33:05.176Z,-1.10
2019-04-14T06:34:04.441Z,-1.10
2019-04-14T06:35:05.342Z,-1.10
2019-04-14T06:36:04.863Z,-1.10
2019-04-14T06:37:04.314Z,-1.10
2019-04-14T06:38:05.891Z,-1.10
2019-04-14T06:39:04.712Z,-1.10
2019-04-14T06:40:04.446Z,-1.00
2019-04-14T06:41:04.590Z,-1.00
2019-04-14T06:42:05.051Z,-1.00
2019-04-14T06:43:11.668Z,-1.00
2019-04-14T06:44:04.193Z,-1.00
2019-04-14T06:45:04.464Z,-1.00
2019-04-14T06:46:04.384Z,-1.00
2019-04-14T06:47:04.546Z,-1.00
2019-04-14T06:48:04.884Z,-1.00
2019-04-14T06:49:04.467Z,-0.90
2019-04-14T06:50:04.572Z,-0.90
2019-04-14T06:51:04.791Z,-0.90
2019-04-14T06:52:04.213Z,-0.90
2019-04-14T06:53:04.428Z,-0.90
2019-04-14T06:54:05.042Z,-0.90
2019-04-14T06:55:05.263Z,-0.80
2019-04-14T06:56:04.719Z,-0.80
2019-04-14T06:57:04.918Z,-0.80
2019-04-14T06:58:04.563Z,-0.80
2019-04-14T06:59:04.956Z,-0.80
2019-04-14T07:00:05.182Z,-0.80
2019-04-14T07:01:04.762Z,-0.80
2019-04-14T07:02:05.010Z,-0.70
2019-04-14T07:03:04.336Z,-0.70
2019-04-14T07:04:04.625Z,-0.70
2019-04-14T07:05:05.032Z,-0.70
2019-04-14T07:06:04.333Z,-0.70
2019-04-14T07:07:04.770Z,-0.70
2019-04-14T07:08:05.341Z,-0.70
2019-04-14T07:09:04.534Z,-0.70
2019-04-14T07:10:04.535Z,-0.60
2019-04-14T07:11:04.843Z,-0.60
2019-04-14T07:12:04.495Z,-0.60
2019-04-14T07:13:05.048Z,-0.60
2019-04-14T07:14:04.421Z,-0.60
2019-04-14T07:15:05.169Z,-0.60
2019-04-14T07:16:05.287Z,-0.60
2019-04-14T07:17:04.386Z,-0.60
2019-04-14T07:18:05.043Z,-0.50
2019-04-14T07:19:04.766Z,-0.50
2019-04-14T07:20:04.757Z,-0.50
2019-04-14T07:21:04.986Z,-0.50
2019-04-14T07:22:04.296Z,-0.50
2019-04-14T07:23:04.600Z,-0.50
2019-04-14T07:24:04.722Z,-0.50
2019-04-14T07:25:04.743Z,-0.40
2019-04-14T07:26:05.039Z,-0.40
2019-04-14T07:27:05.109Z,-0.40
2019-04-14T07:28:04.709Z,-0.40
2019-04-14T07:29:04.949Z,-0.40
2019-04-14T07:30:05.160Z,-0.40
2019-04-14T07:31:04.913Z,-0.40
2019-04-14T07:32:05.135Z,-0.30
2019-04-14T07:33:04.226Z,-0.30
2019-04-14T07:34:04.959Z,-0.30
2019-04-14T07:35:04.674Z,-0.30
2019-04-14T07:36:04.332Z,-0.30
2019-04-14T07:37:04.698Z,-0.30
2019-04-14T07:38:04.232Z,-0.30
2019-04-14T07:39:04.627Z,-0.20
2019-04-14T07:40:04.575Z,-0.20
2019-04-14T07:41:04.990Z,-0.20
2019-04-14T07:42:05.085Z,-0.20
2019-04-14T07:43:10.107Z,-0.20
2019-04-14T07:44:04.571Z,-0.20
2019-04-14T07:45:04.826Z,-0.20
2019-04-14T07:46:04.437Z,-0.10
2019-04-14T07:47:04.545Z,-0.10
2019-04-14T07:48:04.369Z,-0.10
2019-04-14T07:49:05.095Z,-0.10
2019-04-14T07:50:14.320Z,-0.10
2019-04-14T07:51:04.830Z,-0.10
2019-04-14T07:52:04.791Z,0.00
2019-04-14T07:53:05.059Z,0.00
2019-04-14T07:54:04.612Z,0.00
2019-04-14T07:55:04.270Z,0.00
2019-04-14T07:56:04.876Z,0.00
2019-04-14T07:57:05.008Z,0.00
2019-04-14T07:58:05.124Z,0.00
2019-04-14T07:59:04.783Z,0.00
2019-04-14T08:00:04.721Z,0.10
2019-04-14T08:01:04.269Z,0.10
2019-04-14T08:02:04.874Z,0.10
2019-04-14T08:03:05.061Z,0.10
2019-04-14T08:04:04.786Z,0.10
2019-04-14T08:05:04.881Z,0.10
2019-04-14T08:06:04.402Z,0.10
2019-04-14T08:07:04.798Z,0.10
2019-04-14T08:08:05.108Z,0.10
2019-04-14T08:09:04.599Z,0.20
2019-04-14T08:10:04.843Z,0.20
2019-04-14T08:11:04.899Z,0.20
2019-04-14T08:12:04.925Z,0.20
2019-04-14T08:13:05.064Z,0.20
2019-04-14T08:14:04.215Z,0.20
2019-04-14T08:15:04.756Z,0.20
2019-04-14T08:16:10.026Z,0.20
2019-04-14T08:17:04.553Z,0.30
2019-04-14T08:18:04.754Z,0.30
2019-04-14T08:19:04.809Z,0.30
2019-04-14T08:20:04.653Z,0.30
2019-04-14T08:21:04.726Z,0.30
2019-04-14T08:22:04.348Z,0.30
2019-04-14T08:23:05.373Z,0.30
2019-04-14T08:24:04.820Z,0.30
2019-04-14T08:25:04.934Z,0.30
2019-04-14T08:26:04.494Z,0.40
2019-04-14T08:27:04.714Z,0.40
2019-04-14T08:28:04.918Z,0.40
2019-04-14T08:29:04.800Z,0.40
2019-04-14T08:30:05.359Z,0.40
2019-04-14T08:31:04.455Z,0.40
2019-04-14T08:32:04.423Z,0.40
2019-04-14T08:33:04.631Z,0.50
2019-04-14T08:34:04.945Z,0.50
2019-04-14T08:35:04.438Z,0.50
2019-04-14T08:36:04.633Z,0.50
2019-04-14T08:37:04.754Z,0.50
2019-04-14T08:38:04.409Z,0.50
2019-04-14T08:39:04.495Z,0.50
2019-04-14T08:40:05.208Z,0.50
2019-04-14T08:41:04.337Z,0.50
2019-04-14T08:42:04.601Z,0.50
2019-04-14T08:43:04.646Z,0.60
2019-04-14T08:44:04.730Z,0.60
2019-04-14T08:45:05.027Z,0.60
2019-04-14T08:46:04.681Z,0.60
2019-04-14T08:47:04.816Z,0.60
2019-04-14T08:48:04.543Z,0.60
2019-04-14T08:49:04.803Z,0.60
2019-04-14T08:50:10.019Z,0.60
2019-04-14T08:51:04.701Z,0.60
2019-04-14T08:52:05.057Z,0.60
2019-04-14T08:53:04.453Z,0.60
2019-04-14T08:54:04.565Z,0.70
2019-04-14T08:55:05.206Z,0.70
2019-04-14T08:56:04.682Z,0.70
2019-04-14T08:57:04.931Z,0.70
2019-04-14T08:58:04.558Z,0.70
2019-04-14T08:59:05.060Z,0.70
2019-04-14T09:00:05.075Z,0.70
2019-04-14T09:01:05.344Z,0.70
2019-04-14T09:02:04.187Z,0.70
2019-04-14T09:03:04.390Z,0.70
2019-04-14T09:04:04.749Z,0.80
2019-04-14T09:05:04.964Z,0.80
2019-04-14T09:06:04.337Z,0.80
2019-04-14T09:07:04.672Z,0.80
2019-04-14T09:08:04.841Z,0.80
2019-04-14T09:09:07.305Z,0.80
2019-04-14T09:10:04.409Z,0.80
2019-04-14T09:11:05.306Z,0.80
2019-04-14T09:12:15.180Z,0.90
2019-04-14T09:13:04.863Z,0.90
2019-04-14T09:14:05.063Z,0.90
2019-04-14T09:15:04.661Z,0.90
2019-04-14T09:16:04.395Z,0.90
2019-04-14T09:17:05.240Z,0.90
2019-04-14T09:18:05.152Z,1.00
2019-04-14T09:19:07.705Z,1.00
2019-04-14T09:20:04.682Z,1.00
2019-04-14T09:21:05.074Z,1.00
2019-04-14T09:22:04.682Z,1.00
2019-04-14T09:23:04.970Z,1.00
2019-04-14T09:24:05.392Z,1.10
2019-04-14T09:25:04.904Z,1.10
2019-04-14T09:26:04.320Z,1.10
2019-04-14T09:27:04.763Z,1.10
2019-04-14T09:28:05.168Z,1.10
2019-04-14T09:29:05.235Z,1.10
2019-04-14T09:30:05.169Z,1.10
2019-04-14T09:31:05.166Z,1.10
2019-04-14T09:32:04.976Z,1.20
2019-04-14T09:33:04.590Z,1.20
2019-04-14T09:34:04.921Z,1.20
2019-04-14T09:35:04.553Z,1.20
2019-04-14T09:36:04.584Z,1.20
2019-04-14T09:37:04.892Z,1.20
2019-04-14T09:38:05.008Z,1.20
2019-04-14T09:39:04.503Z,1.20
2019-04-14T09:40:05.001Z,1.30
2019-04-14T09:41:04.968Z,1.30
2019-04-14T09:42:04.200Z,1.30
2019-04-14T09:43:09.400Z,1.30
2019-04-14T09:44:04.939Z,1.30
2019-04-14T09:45:04.974Z,1.30
2019-04-14T09:46:05.074Z,1.30
2019-04-14T09:47:04.324Z,1.30
2019-04-14T09:48:04.607Z,1.30
2019-04-14T09:49:04.549Z,1.30
2019-04-14T09:50:04.831Z,1.30
2019-04-14T09:51:05.304Z,1.40
2019-04-14T09:52:05.119Z,1.40
2019-04-14T09:53:04.626Z,1.40
2019-04-14T09:54:05.243Z,1.40
2019-04-14T09:55:05.151Z,1.40
2019-04-14T09:56:04.935Z,1.40
2019-04-14T09:57:05.047Z,1.40
2019-04-14T09:58:05.138Z,1.50
2019-04-14T09:59:05.201Z,1.50
2019-04-14T10:00:04.324Z,1.50
2019-04-14T10:01:04.647Z,1.50
2019-04-14T10:02:04.613Z,1.50
2019-04-14T10:03:09.483Z,1.50
2019-04-14T10:04:04.996Z,1.50
2019-04-14T10:05:04.879Z,1.60
2019-04-14T10:06:04.398Z,1.60
2019-04-14T10:07:05.182Z,1.60
2019-04-14T10:08:04.573Z,1.60
2019-04-14T10:09:04.733Z,1.60
2019-04-14T10:10:04.928Z,1.60
2019-04-14T10:11:04.533Z,1.60
2019-04-14T10:12:05.011Z,1.70
2019-04-14T10:13:04.304Z,1.70
2019-04-14T10:14:04.670Z,1.70
2019-04-14T10:15:05.002Z,1.70
2019-04-14T10:16:04.553Z,1.70
2019-04-14T10:17:05.101Z,1.70
2019-04-14T10:18:05.292Z,1.70
2019-04-14T10:19:04.733Z,1.70
2019-04-14T10:20:05.179Z,1.80
2019-04-14T10:21:16.357Z,1.80
2019-04-14T10:22:04.358Z,1.80
2019-04-14T10:23:05.164Z,1.80
2019-04-14T10:24:04.436Z,1.80
2019-04-14T10:25:04.477Z,1.80
2019-04-14T10:26:04.720Z,1.80
2019-04-14T10:27:05.011Z,1.80
2019-04-14T10:28:04.374Z,1.80
2019-04-14T10:29:05.152Z,1.90
2019-04-14T10:30:05.163Z,1.90
2019-04-14T10:31:04.397Z,1.90
2019-04-14T10:32:04.777Z,1.90
2019-04-14T10:33:04.912Z,1.90
2019-04-14T10:34:05.227Z,1.90
2019-04-14T10:35:04.216Z,2.00
2019-04-14T10:36:04.484Z,2.00
2019-04-14T10:37:05.031Z,2.00
2019-04-14T10:38:04.407Z,2.00
2019-04-14T10:39:04.526Z,2.00
2019-04-14T10:40:06.132Z,2.10
2019-04-14T10:41:04.948Z,2.10
2019-04-14T10:42:05.131Z,2.10
2019-04-14T10:43:09.805Z,2.10
2019-04-14T10:44:04.227Z,2.20
2019-04-14T10:45:04.470Z,2.20
2019-04-14T10:46:04.519Z,2.20
2019-04-14T10:47:05.224Z,2.20
2019-04-14T10:48:04.522Z,2.20
2019-04-14T10:49:04.427Z,2.30
2019-04-14T10:50:05.116Z,2.30
2019-04-14T10:51:04.428Z,2.30
2019-04-14T10:52:04.932Z,2.30
2019-04-14T10:53:05.203Z,2.30
2019-04-14T10:54:04.326Z,2.30
2019-04-14T10:55:04.418Z,2.30
2019-04-14T10:56:04.497Z,2.30
2019-04-14T10:57:04.345Z,2.40
2019-04-14T10:58:04.389Z,2.40
2019-04-14T10:59:04.924Z,2.40
2019-04-14T11:00:04.496Z,2.40
2019-04-14T11:01:04.678Z,2.40
2019-04-14T11:02:04.551Z,2.40
2019-04-14T11:03:10.155Z,2.50
2019-04-14T11:04:04.591Z,2.50
2019-04-14T11:05:04.824Z,2.50
2019-04-14T11:06:04.315Z,2.50
2019-04-14T11:07:05.065Z,2.50
2019-04-14T11:08:05.124Z,2.50
2019-04-14T11:09:05.307Z,2.60
2019-04-14T11:10:04.220Z,2.60
2019-04-14T11:11:05.126Z,2.60
2019-04-14T11:12:04.511Z,2.60
2019-04-14T11:13:05.442Z,2.60
2019-04-14T11:14:04.831Z,2.70
2019-04-14T11:15:05.186Z,2.60
2019-04-14T11:16:05.073Z,2.70
2019-04-14T11:17:05.229Z,2.70
2019-04-14T11:18:04.800Z,2.70
2019-04-14T11:19:04.905Z,2.70
2019-04-14T11:20:05.080Z,2.70
2019-04-14T11:21:04.412Z,2.70
2019-04-14T11:22:04.851Z,2.70
2019-04-14T11:23:04.603Z,2.70
2019-04-14T11:24:04.892Z,2.70
2019-04-14T11:25:05.070Z,2.70
2019-04-14T11:26:04.307Z,2.70
2019-04-14T11:27:04.958Z,2.70
2019-04-14T11:28:04.927Z,2.70
2019-04-14T11:29:04.953Z,2.70
2019-04-14T11:30:04.625Z,2.80
2019-04-14T11:31:05.107Z,2.80
2019-04-14T11:32:05.137Z,2.80
2019-04-14T11:33:04.405Z,2.80
2019-04-14T11:34:04.891Z,2.80
2019-04-14T11:35:04.624Z,2.80
2019-04-14T11:36:05.150Z,2.80
2019-04-14T11:37:04.323Z,2.80
2019-04-14T11:38:04.643Z,2.80
2019-04-14T11:39:05.004Z,2.90
2019-04-14T11:40:04.517Z,2.90
2019-04-14T11:41:04.595Z,2.90
2019-04-14T11:42:04.569Z,2.90
2019-04-14T11:43:09.791Z,2.90
2019-04-14T11:44:04.600Z,2.90
2019-04-14T11:45:05.210Z,2.90
2019-04-14T11:46:04.542Z,2.90
2019-04-14T11:47:04.562Z,2.90
2019-04-14T11:48:05.170Z,2.90
2019-04-14T11:49:04.355Z,3.00
2019-04-14T11:50:04.649Z,2.90
2019-04-14T11:51:04.468Z,3.00
2019-04-14T11:52:04.552Z,3.00
2019-04-14T11:53:04.538Z,3.00
2019-04-14T11:54:05.025Z,3.00
2019-04-14T11:55:05.298Z,3.00
2019-04-14T11:56:05.165Z,3.00
2019-04-14T11:57:04.667Z,3.00
2019-04-14T11:58:05.083Z,3.00
2019-04-14T11:59:04.675Z,3.00
2019-04-14T12:00:05.055Z,3.00
2019-04-14T12:01:04.510Z,3.00
2019-04-14T12:02:04.619Z,3.00
2019-04-14T12:03:04.737Z,3.00
2019-04-14T12:04:05.307Z,3.00
2019-04-14T12:05:04.663Z,3.00
2019-04-14T12:06:04.856Z,3.00
2019-04-14T12:07:04.730Z,3.00
2019-04-14T12:08:04.684Z,3.00
2019-04-14T12:09:04.603Z,3.00
2019-04-14T12:10:04.549Z,3.00
2019-04-14T12:11:05.035Z,3.00
2019-04-14T12:12:05.033Z,3.00
2019-04-14T12:13:04.335Z,3.00
2019-04-14T12:14:04.539Z,3.00
2019-04-14T12:15:15.813Z,3.00
2019-04-14T12:16:05.097Z,3.00
2019-04-14T12:17:04.333Z,3.00
2019-04-14T12:18:04.899Z,3.00
2019-04-14T12:19:05.057Z,3.00
2019-04-14T12:20:05.022Z,3.00
2019-04-14T12:21:04.567Z,3.00
2019-04-14T12:22:08.342Z,3.00
2019-04-14T12:23:04.404Z,3.00
2019-04-14T12:24:04.392Z,3.00
2019-04-14T12:25:04.380Z,3.00
2019-04-14T12:26:04.945Z,3.00
2019-04-14T12:27:04.669Z,3.00
2019-04-14T12:28:05.193Z,3.00
2019-04-14T12:29:06.296Z,3.00
2019-04-14T12:30:04.725Z,3.00
2019-04-14T12:31:04.281Z,3.00
2019-04-14T12:32:04.851Z,3.00
2019-04-14T12:33:05.044Z,3.00
2019-04-14T12:34:04.572Z,3.00
2019-04-14T12:35:05.092Z,3.00
2019-04-14T12:36:04.398Z,3.00
2019-04-14T12:37:05.236Z,3.00
2019-04-14T12:38:04.786Z,3.00
2019-04-14T12:39:05.156Z,3.00
2019-04-14T12:40:05.222Z,3.00
2019-04-14T12:41:06.106Z,3.00
2019-04-14T12:42:04.712Z,3.00
2019-04-14T12:43:04.430Z,3.00
2019-04-14T12:44:04.563Z,3.00
2019-04-14T12:45:04.538Z,3.00
2019-04-14T12:46:06.126Z,3.00
2019-04-14T12:47:05.145Z,3.00
2019-04-14T12:48:04.290Z,3.00
2019-04-14T12:49:09.739Z,3.00
2019-04-14T12:50:04.437Z,3.00
2019-04-14T12:51:04.465Z,3.00
2019-04-14T12:52:04.484Z,3.00
2019-04-14T12:53:04.586Z,3.10
2019-04-14T12:54:04.808Z,3.10
2019-04-14T12:55:04.830Z,3.10
2019-04-14T12:56:04.363Z,3.10
2019-04-14T12:57:04.584Z,3.10
2019-04-14T12:58:04.986Z,3.10
2019-04-14T12:59:04.918Z,3.10
2019-04-14T13:00:04.994Z,3.10
2019-04-14T13:01:05.121Z,3.10
2019-04-14T13:02:04.304Z,3.10
2019-04-14T13:03:04.444Z,3.10
2019-04-14T13:04:04.563Z,3.10
2019-04-14T13:05:04.940Z,3.20
2019-04-14T13:06:04.315Z,3.20
2019-04-14T13:07:04.625Z,3.20
2019-04-14T13:08:04.863Z,3.20
2019-04-14T13:09:10.176Z,3.20
2019-04-14T13:10:04.645Z,3.20
2019-04-14T13:11:04.644Z,3.20
2019-04-14T13:12:04.782Z,3.20
2019-04-14T13:13:04.847Z,3.20
2019-04-14T13:14:05.025Z,3.20
2019-04-14T13:15:04.286Z,3.20
2019-04-14T13:16:04.962Z,3.20
2019-04-14T13:17:04.456Z,3.20
2019-04-14T13:18:04.453Z,3.20
2019-04-14T13:19:04.636Z,3.20
2019-04-14T13:20:04.647Z,3.20
2019-04-14T13:21:04.735Z,3.20
2019-04-14T13:22:04.639Z,3.20
2019-04-14T13:23:04.985Z,3.20